Time,TemperatureF,DewpointF,PressureIn,WindDirection,WindDirectionDegrees,WindSpeedMPH,WindSpeedGustMPH,Humidity,HourlyPrecipIn,Conditions,Clouds,dailyrainin,SoftwareType,DateUTC
2013-03-23 00:01:00,23.4,21.7,29.85,NNE,18,16.0,21.0,93,0.00,,---,0.00,VWS V14.00,2013-03-23 06:01:00,
2013-03-23 00:06:00,23.3,21.6,29.85,NNE,18,15.0,18.0,93,0.00,,---,0.00,VWS V14.00,2013-03-23 06:06:00,
2013-03-23 00:11:00,23.2,21.5,29.85,North,360,17.0,19.0,93,0.00,,---,0.00,VWS V14.00,2013-03-23 06:11:00,
2013-03-23 00:16:00,23.0,21.3,29.85,North,360,15.0,19.0,93,0.00,,---,0.00,VWS V14.00,2013-03-23 06:16:00,
2013-03-23 00:22:00,22.6,20.9,29.85,NNE,15,17.0,20.0,93,0.00,,---,0.00,VWS V14.00,2013-03-23 06:22:00,
2013-03-23 00:27:00,22.5,20.8,29.84,North,5,16.0,19.0,93,0.00,,---,0.00,VWS V14.00,2013-03-23 06:27:00,
2013-03-23 00:32:00,22.4,20.7,29.84,North,5,14.0,19.0,93,0.00,,---,0.00,VWS V14.00,2013-03-23 06:32:00,
2013-03-23 00:37:00,22.3,20.6,29.84,North,5,16.0,17.0,93,0.00,,---,0.00,VWS V14.00,2013-03-23 06:37:00,
2013-03-23 00:42:00,22.3,20.6,29.84,NNE,12,9.0,17.0,93,0.00,,---,0.00,VWS V14.00,2013-03-23 06:42:00,
2013-03-23 00:47:00,22.3,20.6,29.84,North,9,11.0,13.0,93,0.00,,---,0.00,VWS V14.00,2013-03-23 06:47:00,
2013-03-23 00:53:00,22.3,20.6,29.84,North,11,12.0,15.0,93,0.00,,---,0.00,VWS V14.00,2013-03-23 06:53:00,
2013-03-23 00:58:00,22.3,20.6,29.84,North,5,14.0,14.0,93,0.00,,---,0.00,VWS V14.00,2013-03-23 06:58:00,
2013-03-23 01:03:00,22.3,20.6,29.84,North,360,10.0,15.0,93,0.00,,---,0.00,VWS V14.00,2013-03-23 07:03:00,
2013-03-23 01:08:00,22.3,20.6,29.84,North,360,9.0,12.0,93,0.00,,---,0.00,VWS V14.00,2013-03-23 07:08:00,
2013-03-23 01:13:00,22.3,20.6,29.84,North,351,11.0,14.0,93,0.00,,---,0.00,VWS V14.00,2013-03-23 07:13:00,
2013-03-23 01:19:00,22.2,20.5,29.84,North,5,10.0,12.0,93,0.00,,---,0.00,VWS V14.00,2013-03-23 07:19:00,
2013-03-23 01:24:00,22.2,20.5,29.84,North,9,12.0,14.0,93,0.00,,---,0.00,VWS V14.00,2013-03-23 07:24:00,
2013-03-23 01:29:00,22.1,20.4,29.84,North,5,11.0,13.0,93,0.00,,---,0.00,VWS V14.00,2013-03-23 07:29:00,
2013-03-23 01:34:00,22.1,20.4,29.85,North,5,9.0,13.0,93,0.00,,---,0.00,VWS V14.00,2013-03-23 07:34:00,
2013-03-23 01:39:00,22.1,20.4,29.84,North,350,10.0,11.0,93,0.00,,---,0.00,VWS V14.00,2013-03-23 07:39:00,
2013-03-23 01:45:00,22.1,20.4,29.84,NNE,12,10.0,12.0,93,0.00,,---,0.00,VWS V14.00,2013-03-23 07:45:00,
2013-03-23 01:50:00,22.1,20.4,29.84,North,5,7.0,12.0,93,0.00,,---,0.00,VWS V14.00,2013-03-23 07:50:00,
2013-03-23 01:55:00,22.1,20.4,29.84,North,5,8.0,12.0,93,0.00,,---,0.00,VWS V14.00,2013-03-23 07:55:00,
2013-03-23 02:00:00,22.0,20.3,29.84,North,355,10.0,13.0,93,0.00,,---,0.00,VWS V14.00,2013-03-23 08:00:00,
2013-03-23 02:05:00,22.1,20.4,29.84,North,360,10.0,10.0,93,0.00,,---,0.00,VWS V14.00,2013-03-23 08:05:00,
2013-03-23 02:10:00,22.0,20.3,29.84,North,360,7.0,11.0,93,0.00,,---,0.00,VWS V14.00,2013-03-23 08:10:00,
2013-03-23 02:15:00,21.9,20.2,29.84,North,5,9.0,11.0,93,0.00,,---,0.00,VWS V14.00,2013-03-23 08:15:00,
2013-03-23 02:21:00,21.8,20.1,29.84,NNE,12,11.0,13.0,93,0.00,,---,0.00,VWS V14.00,2013-03-23 08:21:00,
2013-03-23 02:26:00,21.7,20.0,29.84,North,5,11.0,17.0,93,0.00,,---,0.00,VWS V14.00,2013-03-23 08:26:00,
2013-03-23 02:32:00,21.5,19.8,29.84,North,9,10.0,17.0,93,0.00,,---,0.00,VWS V14.00,2013-03-23 08:32:00,
2013-03-23 02:37:00,21.4,19.7,29.84,North,360,10.0,12.0,93,0.00,,---,0.00,VWS V14.00,2013-03-23 08:37:00,
2013-03-23 02:42:00,21.3,19.6,29.84,North,5,7.0,12.0,93,0.00,,---,0.00,VWS V14.00,2013-03-23 08:42:00,
2013-03-23 02:47:00,21.3,19.6,29.84,NNW,344,9.0,9.0,93,0.00,,---,0.00,VWS V14.00,2013-03-23 08:47:00,
2013-03-23 02:52:00,21.2,19.5,29.85,NNW,342,9.0,10.0,93,0.00,,---,0.00,VWS V14.00,2013-03-23 08:52:00,
2013-03-23 02:57:00,21.2,19.5,29.85,NNW,341,9.0,10.0,93,0.00,,---,0.00,VWS V14.00,2013-03-23 08:57:00,
2013-03-23 03:03:00,21.1,19.4,29.85,NNW,337,7.0,10.0,93,0.00,,---,0.00,VWS V14.00,2013-03-23 09:03:00,
2013-03-23 03:08:00,21.2,19.5,29.85,NNW,342,6.0,11.0,93,0.00,,---,0.00,VWS V14.00,2013-03-23 09:08:00,
2013-03-23 03:13:00,21.2,19.5,29.85,NNW,346,4.0,11.0,93,0.00,,---,0.00,VWS V14.00,2013-03-23 09:13:00,
2013-03-23 03:18:00,21.2,19.5,29.84,North,360,9.0,9.0,93,0.00,,---,0.00,VWS V14.00,2013-03-23 09:18:00,
2013-03-23 03:23:00,21.2,19.5,29.84,NNW,346,7.0,12.0,93,0.00,,---,0.00,VWS V14.00,2013-03-23 09:23:00,
2013-03-23 03:29:00,21.2,19.5,29.84,NNW,338,9.0,11.0,93,0.00,,---,0.00,VWS V14.00,2013-03-23 09:29:00,
2013-03-23 03:34:00,21.1,19.4,29.85,North,355,9.0,11.0,93,0.00,,---,0.00,VWS V14.00,2013-03-23 09:34:00,
2013-03-23 03:39:00,21.1,19.4,29.84,North,355,9.0,12.0,93,0.00,,---,0.00,VWS V14.00,2013-03-23 09:39:00,
2013-03-23 03:44:00,21.1,19.4,29.84,North,355,9.0,12.0,93,0.00,,---,0.00,VWS V14.00,2013-03-23 09:44:00,
2013-03-23 03:49:00,21.1,19.4,29.85,North,355,9.0,13.0,93,0.00,,---,0.00,VWS V14.00,2013-03-23 09:49:00,
2013-03-23 03:55:00,21.2,19.5,29.85,North,355,8.0,13.0,93,0.00,,---,0.00,VWS V14.00,2013-03-23 09:55:00,
2013-03-23 04:00:00,21.2,19.5,29.85,North,360,8.0,9.0,93,0.00,,---,0.00,VWS V14.00,2013-03-23 10:00:00,
2013-03-23 04:05:00,21.1,19.4,29.84,North,10,8.0,11.0,93,0.00,,---,0.00,VWS V14.00,2013-03-23 10:05:00,
2013-03-23 04:10:00,21.0,19.3,29.84,North,5,6.0,10.0,93,0.00,,---,0.00,VWS V14.00,2013-03-23 10:10:00,
2013-03-23 04:15:00,21.0,19.3,29.84,North,360,10.0,11.0,93,0.00,,---,0.00,VWS V14.00,2013-03-23 10:15:00,
2013-03-23 04:20:00,21.0,19.3,29.84,North,360,8.0,11.0,93,0.00,,---,0.00,VWS V14.00,2013-03-23 10:20:00,
2013-03-23 04:25:00,21.0,19.3,29.84,North,355,10.0,11.0,93,0.00,,---,0.00,VWS V14.00,2013-03-23 10:25:00,
2013-03-23 04:31:00,21.0,19.3,29.85,North,360,7.0,12.0,93,0.00,,---,0.00,VWS V14.00,2013-03-23 10:31:00,
2013-03-23 04:36:00,21.0,19.3,29.85,North,5,10.0,10.0,93,0.00,,---,0.00,VWS V14.00,2013-03-23 10:36:00,
2013-03-23 04:41:00,20.9,19.0,29.85,North,360,8.0,11.0,92,0.00,,---,0.00,VWS V14.00,2013-03-23 10:41:00,
2013-03-23 04:47:00,20.8,18.9,29.86,North,360,6.0,8.0,92,0.00,,---,0.00,VWS V14.00,2013-03-23 10:47:00,
2013-03-23 04:52:00,20.8,18.9,29.86,North,350,7.0,9.0,92,0.00,,---,0.00,VWS V14.00,2013-03-23 10:52:00,
2013-03-23 04:57:00,20.7,18.8,29.86,North,355,7.0,10.0,92,0.00,,---,0.00,VWS V14.00,2013-03-23 10:57:00,
2013-03-23 05:02:00,20.7,18.8,29.86,North,351,8.0,11.0,92,0.00,,---,0.00,VWS V14.00,2013-03-23 11:02:00,
2013-03-23 05:07:00,20.6,18.9,29.86,North,360,9.0,11.0,93,0.00,,---,0.00,VWS V14.00,2013-03-23 11:07:00,
2013-03-23 05:12:00,20.6,18.9,29.86,North,355,10.0,12.0,93,0.00,,---,0.00,VWS V14.00,2013-03-23 11:12:00,
2013-03-23 05:17:00,20.6,18.9,29.86,North,5,9.0,11.0,93,0.00,,---,0.00,VWS V14.00,2013-03-23 11:17:00,
2013-03-23 05:23:00,20.6,18.9,29.86,NNE,15,9.0,11.0,93,0.00,,---,0.00,VWS V14.00,2013-03-23 11:23:00,
2013-03-23 05:28:00,20.6,18.9,29.86,NNE,20,9.0,10.0,93,0.00,,---,0.00,VWS V14.00,2013-03-23 11:28:00,
2013-03-23 05:33:00,20.6,18.9,29.86,North,9,8.0,10.0,93,0.00,,---,0.00,VWS V14.00,2013-03-23 11:33:00,
2013-03-23 05:38:00,20.6,18.9,29.86,North,360,8.0,11.0,93,0.00,,---,0.00,VWS V14.00,2013-03-23 11:38:00,
2013-03-23 05:43:00,20.5,18.8,29.86,North,360,10.0,12.0,93,0.00,,---,0.00,VWS V14.00,2013-03-23 11:43:00,
2013-03-23 05:49:00,20.5,18.8,29.87,North,355,8.0,11.0,93,0.00,,---,0.00,VWS V14.00,2013-03-23 11:49:00,
2013-03-23 05:54:00,20.5,18.8,29.87,North,360,13.0,14.0,93,0.00,,---,0.00,VWS V14.00,2013-03-23 11:54:00,
2013-03-23 05:59:00,20.4,18.7,29.87,North,355,10.0,15.0,93,0.00,,---,0.00,VWS V14.00,2013-03-23 11:59:00,
2013-03-23 06:04:00,20.4,18.7,29.87,NNW,343,13.0,15.0,93,0.00,,---,0.00,VWS V14.00,2013-03-23 12:04:00,
2013-03-23 06:09:00,20.4,18.7,29.87,North,360,12.0,15.0,93,0.00,,---,0.00,VWS V14.00,2013-03-23 12:09:00,
2013-03-23 06:14:00,20.4,18.7,29.87,North,5,10.0,15.0,93,0.00,,---,0.00,VWS V14.00,2013-03-23 12:14:00,
2013-03-23 06:20:00,20.4,18.7,29.87,North,360,12.0,12.0,93,0.00,,---,0.00,VWS V14.00,2013-03-23 12:20:00,
2013-03-23 06:25:00,20.4,18.7,29.88,North,351,9.0,13.0,93,0.00,,---,0.00,VWS V14.00,2013-03-23 12:25:00,
2013-03-23 06:30:00,20.4,18.7,29.88,North,9,9.0,14.0,93,0.00,,---,0.00,VWS V14.00,2013-03-23 12:30:00,
2013-03-23 06:35:00,20.4,18.7,29.88,North,355,16.0,19.0,93,0.00,,---,0.00,VWS V14.00,2013-03-23 12:35:00,
2013-03-23 06:41:00,19.8,17.9,29.88,NNE,15,22.0,26.0,92,0.00,,---,0.00,VWS V14.00,2013-03-23 12:41:00,
2013-03-23 06:46:00,18.8,16.9,29.89,North,355,17.0,24.0,92,0.00,,---,0.00,VWS V14.00,2013-03-23 12:46:00,
2013-03-23 06:51:00,18.4,16.5,29.89,North,5,14.0,25.0,92,0.00,,---,0.00,VWS V14.00,2013-03-23 12:51:00,
2013-03-23 06:57:00,18.4,16.5,29.89,North,9,15.0,19.0,92,0.00,,---,0.00,VWS V14.00,2013-03-23 12:57:00,
2013-03-23 07:02:00,18.4,16.5,29.89,North,355,18.0,22.0,92,0.00,,---,0.00,VWS V14.00,2013-03-23 13:02:00,
2013-03-23 07:07:00,18.1,16.2,29.90,North,355,19.0,22.0,92,0.00,,---,0.00,VWS V14.00,2013-03-23 13:07:00,
2013-03-23 07:12:00,18.0,16.1,29.90,North,5,15.0,24.0,92,0.00,,---,0.00,VWS V14.00,2013-03-23 13:12:00,
2013-03-23 07:17:00,17.8,15.9,29.90,North,5,20.0,21.0,92,0.00,,---,0.00,VWS V14.00,2013-03-23 13:17:00,
2013-03-23 07:22:00,17.7,15.8,29.90,North,5,16.0,22.0,92,0.00,,---,0.00,VWS V14.00,2013-03-23 13:22:00,
2013-03-23 07:27:00,17.5,15.6,29.90,North,10,12.0,19.0,92,0.00,,---,0.00,VWS V14.00,2013-03-23 13:27:00,
2013-03-23 07:33:00,17.6,15.7,29.90,North,5,14.0,19.0,92,0.00,,---,0.00,VWS V14.00,2013-03-23 13:33:00,
2013-03-23 07:38:00,17.5,15.6,29.91,North,5,15.0,18.0,92,0.00,,---,0.00,VWS V14.00,2013-03-23 13:38:00,
2013-03-23 07:43:00,17.3,15.4,29.92,NNE,17,16.0,18.0,92,0.00,,---,0.00,VWS V14.00,2013-03-23 13:43:00,
2013-03-23 07:49:00,17.3,15.4,29.92,North,5,14.0,19.0,92,0.00,,---,0.00,VWS V14.00,2013-03-23 13:49:00,
2013-03-23 07:54:00,17.1,14.9,29.92,North,9,17.0,21.0,91,0.00,,---,0.00,VWS V14.00,2013-03-23 13:54:00,
2013-03-23 07:59:00,16.9,14.7,29.92,North,11,14.0,20.0,91,0.00,,---,0.00,VWS V14.00,2013-03-23 13:59:00,
2013-03-23 08:04:00,16.8,14.6,29.92,NNE,26,19.0,23.0,91,0.00,,---,0.00,VWS V14.00,2013-03-23 14:04:00,
2013-03-23 08:09:00,16.8,14.6,29.93,NNE,13,15.0,17.0,91,0.00,,---,0.00,VWS V14.00,2013-03-23 14:09:00,
2013-03-23 08:15:00,16.7,14.5,29.93,North,5,17.0,19.0,91,0.00,,---,0.00,VWS V14.00,2013-03-23 14:15:00,
2013-03-23 08:20:00,16.7,14.8,29.93,North,9,17.0,18.0,92,0.00,,---,0.00,VWS V14.00,2013-03-23 14:20:00,
2013-03-23 08:25:00,16.8,14.9,29.94,North,5,17.0,18.0,92,0.00,,---,0.00,VWS V14.00,2013-03-23 14:25:00,
2013-03-23 08:30:00,16.7,14.5,29.94,North,10,21.0,25.0,91,0.00,,---,0.00,VWS V14.00,2013-03-23 14:30:00,
2013-03-23 08:35:00,16.3,14.1,29.94,North,5,16.0,18.0,91,0.00,,---,0.00,VWS V14.00,2013-03-23 14:35:00,
2013-03-23 08:40:00,16.3,14.1,29.94,North,5,15.0,19.0,91,0.00,,---,0.00,VWS V14.00,2013-03-23 14:40:00,
2013-03-23 08:46:00,16.5,14.3,29.94,North,5,19.0,19.0,91,0.00,,---,0.00,VWS V14.00,2013-03-23 14:46:00,
2013-03-23 08:51:00,16.5,14.3,29.95,North,9,15.0,19.0,91,0.00,,---,0.00,VWS V14.00,2013-03-23 14:51:00,
2013-03-23 08:56:00,16.4,14.2,29.95,North,360,20.0,21.0,91,0.00,,---,0.00,VWS V14.00,2013-03-23 14:56:00,
2013-03-23 09:02:00,16.5,14.3,29.96,North,10,13.0,21.0,91,0.00,,---,0.00,VWS V14.00,2013-03-23 15:02:00,
2013-03-23 09:07:00,16.5,14.3,29.96,North,360,15.0,20.0,91,0.00,,---,0.00,VWS V14.00,2013-03-23 15:07:00,
2013-03-23 09:12:00,16.4,14.2,29.96,North,360,18.0,20.0,91,0.00,,---,0.00,VWS V14.00,2013-03-23 15:12:00,
2013-03-23 09:17:00,16.4,14.2,29.96,North,355,14.0,19.0,91,0.00,,---,0.00,VWS V14.00,2013-03-23 15:17:00,
2013-03-23 09:22:00,16.3,14.1,29.97,North,5,13.0,19.0,91,0.00,,---,0.00,VWS V14.00,2013-03-23 15:22:00,
2013-03-23 09:28:00,16.3,14.1,29.97,North,5,13.0,18.0,91,0.00,,---,0.00,VWS V14.00,2013-03-23 15:28:00,
2013-03-23 09:33:00,16.3,14.1,29.97,North,5,10.0,18.0,91,0.00,,---,0.00,VWS V14.00,2013-03-23 15:33:00,
2013-03-23 09:38:00,16.3,14.1,29.98,North,5,14.0,18.0,91,0.00,,---,0.00,VWS V14.00,2013-03-23 15:38:00,
2013-03-23 09:43:00,16.3,14.1,29.98,North,9,13.0,20.0,91,0.00,,---,0.00,VWS V14.00,2013-03-23 15:43:00,
2013-03-23 09:49:00,16.4,14.2,29.98,North,11,10.0,16.0,91,0.00,,---,0.00,VWS V14.00,2013-03-23 15:49:00,
2013-03-23 09:54:00,16.5,14.3,29.98,North,5,11.0,16.0,91,0.00,,---,0.00,VWS V14.00,2013-03-23 15:54:00,
2013-03-23 09:59:00,16.5,14.3,29.99,NNE,19,13.0,15.0,91,0.00,,---,0.00,VWS V14.00,2013-03-23 15:59:00,
2013-03-23 10:04:00,16.6,14.4,29.99,NNE,22,15.0,15.0,91,0.00,,---,0.00,VWS V14.00,2013-03-23 16:04:00,
2013-03-23 10:09:00,16.6,14.4,29.99,NNE,18,15.0,16.0,91,0.00,,---,0.00,VWS V14.00,2013-03-23 16:09:00,
2013-03-23 10:14:00,16.5,14.3,29.99,North,5,13.0,16.0,91,0.00,,---,0.00,VWS V14.00,2013-03-23 16:14:00,
2013-03-23 10:19:00,16.5,14.3,30.00,NNE,15,14.0,17.0,91,0.00,,---,0.00,VWS V14.00,2013-03-23 16:19:00,
2013-03-23 10:25:00,16.6,14.4,30.00,NNE,23,14.0,17.0,91,0.00,,---,0.00,VWS V14.00,2013-03-23 16:25:00,
2013-03-23 10:30:00,16.8,14.6,30.00,NNE,13,15.0,17.0,91,0.00,,---,0.00,VWS V14.00,2013-03-23 16:30:00,
2013-03-23 10:35:00,16.8,14.6,30.00,North,5,15.0,18.0,91,0.00,,---,0.00,VWS V14.00,2013-03-23 16:35:00,
2013-03-23 10:40:00,16.8,14.6,30.01,NNE,19,13.0,18.0,91,0.00,,---,0.00,VWS V14.00,2013-03-23 16:40:00,
2013-03-23 10:45:00,16.7,14.5,30.01,North,5,13.0,19.0,91,0.00,,---,0.00,VWS V14.00,2013-03-23 16:45:00,
2013-03-23 10:50:00,16.8,14.6,30.01,North,5,13.0,18.0,91,0.00,,---,0.00,VWS V14.00,2013-03-23 16:50:00,
2013-03-23 10:55:00,16.8,14.6,30.01,NNE,15,11.0,13.0,91,0.00,,---,0.00,VWS V14.00,2013-03-23 16:55:00,
2013-03-23 11:00:00,16.6,14.4,30.02,NNE,20,14.0,20.0,91,0.00,,---,0.00,VWS V14.00,2013-03-23 17:00:00,
2013-03-23 11:06:00,16.2,14.0,30.02,NNE,20,15.0,16.0,91,0.00,,---,0.00,VWS V14.00,2013-03-23 17:06:00,
2013-03-23 11:11:00,16.3,14.1,30.03,NNE,33,12.0,17.0,91,0.00,,---,0.00,VWS V14.00,2013-03-23 17:11:00,
2013-03-23 11:16:00,16.4,14.2,30.03,NNE,22,12.0,14.0,91,0.00,,---,0.00,VWS V14.00,2013-03-23 17:16:00,
2013-03-23 11:21:00,16.3,14.1,30.04,North,11,14.0,17.0,91,0.00,,---,0.00,VWS V14.00,2013-03-23 17:21:00,
2013-03-23 11:26:00,16.2,14.0,30.04,NNE,27,11.0,13.0,91,0.00,,---,0.00,VWS V14.00,2013-03-23 17:26:00,
2013-03-23 11:32:00,16.2,14.0,30.04,NE,41,9.0,17.0,91,0.00,,---,0.00,VWS V14.00,2013-03-23 17:32:00,
2013-03-23 11:37:00,16.4,14.2,30.04,NNE,27,13.0,15.0,91,0.00,,---,0.00,VWS V14.00,2013-03-23 17:37:00,
2013-03-23 11:42:00,16.6,14.4,30.04,NNE,16,10.0,15.0,91,0.00,,---,0.00,VWS V14.00,2013-03-23 17:42:00,
2013-03-23 11:47:00,16.7,14.5,30.05,NE,37,10.0,16.0,91,0.00,,---,0.00,VWS V14.00,2013-03-23 17:47:00,
2013-03-23 11:53:00,16.7,14.5,30.05,NE,35,10.0,16.0,91,0.00,,---,0.00,VWS V14.00,2013-03-23 17:53:00,
2013-03-23 11:58:00,16.7,14.5,30.05,NNE,33,8.0,14.0,91,0.00,,---,0.00,VWS V14.00,2013-03-23 17:58:00,
2013-03-23 12:03:00,16.8,14.6,30.05,NNE,18,9.0,16.0,91,0.00,,---,0.00,VWS V14.00,2013-03-23 18:03:00,
2013-03-23 12:08:00,16.8,14.6,30.06,NE,34,12.0,16.0,91,0.00,,---,0.00,VWS V14.00,2013-03-23 18:08:00,
2013-03-23 12:14:00,17.0,14.8,30.06,NNE,24,10.0,16.0,91,0.00,,---,0.00,VWS V14.00,2013-03-23 18:14:00,
2013-03-23 12:19:00,17.2,15.0,30.06,NNE,22,10.0,13.0,91,0.00,,---,0.00,VWS V14.00,2013-03-23 18:19:00,
2013-03-23 12:24:00,17.2,15.0,30.06,NNE,19,10.0,18.0,91,0.00,,---,0.00,VWS V14.00,2013-03-23 18:24:00,
2013-03-23 12:29:00,17.4,15.2,30.06,NE,42,11.0,14.0,91,0.00,,---,0.00,VWS V14.00,2013-03-23 18:29:00,
2013-03-23 12:34:00,17.5,15.3,30.07,NNE,29,8.0,14.0,91,0.00,,---,0.00,VWS V14.00,2013-03-23 18:34:00,
2013-03-23 12:40:00,17.5,15.3,30.07,NNE,24,11.0,17.0,91,0.00,,---,0.00,VWS V14.00,2013-03-23 18:40:00,
2013-03-23 12:45:00,17.5,15.3,30.07,NNE,30,11.0,17.0,91,0.00,,---,0.00,VWS V14.00,2013-03-23 18:45:00,
2013-03-23 12:50:00,17.3,15.1,30.08,NNE,24,8.0,16.0,91,0.00,,---,0.00,VWS V14.00,2013-03-23 18:50:00,
2013-03-23 12:55:00,17.5,15.3,30.08,NE,52,8.0,8.0,91,0.00,,---,0.00,VWS V14.00,2013-03-23 18:55:00,
2013-03-23 13:00:00,17.6,15.4,30.08,NNE,30,11.0,13.0,91,0.00,,---,0.00,VWS V14.00,2013-03-23 19:00:00,
2013-03-23 13:06:00,17.7,15.5,30.08,NNE,27,9.0,12.0,91,0.00,,---,0.00,VWS V14.00,2013-03-23 19:06:00,
2013-03-23 13:12:00,17.7,15.5,30.08,NE,50,11.0,12.0,91,0.00,,---,0.00,VWS V14.00,2013-03-23 19:12:00,
2013-03-23 13:17:00,17.6,15.4,30.08,NE,40,10.0,12.0,91,0.00,,---,0.00,VWS V14.00,2013-03-23 19:17:00,
2013-03-23 13:22:00,17.7,15.5,30.08,NE,34,6.0,13.0,91,0.00,,---,0.00,VWS V14.00,2013-03-23 19:22:00,
2013-03-23 13:27:00,17.8,15.6,30.09,NE,36,11.0,12.0,91,0.00,,---,0.00,VWS V14.00,2013-03-23 19:27:00,
2013-03-23 13:33:00,18.0,15.8,30.09,NE,42,8.0,12.0,91,0.00,,---,0.00,VWS V14.00,2013-03-23 19:33:00,
2013-03-23 13:38:00,18.0,15.8,30.09,ENE,57,6.0,10.0,91,0.00,,---,0.00,VWS V14.00,2013-03-23 19:38:00,
2013-03-23 13:43:00,17.9,15.7,30.09,NE,34,8.0,13.0,91,0.00,,---,0.00,VWS V14.00,2013-03-23 19:43:00,
2013-03-23 13:48:00,17.8,15.6,30.09,NNE,17,10.0,12.0,91,0.00,,---,0.00,VWS V14.00,2013-03-23 19:48:00,
2013-03-23 13:53:00,17.8,15.6,30.09,NE,44,10.0,12.0,91,0.00,,---,0.00,VWS V14.00,2013-03-23 19:53:00,
2013-03-23 13:58:00,17.8,15.6,30.09,NNE,22,9.0,12.0,91,0.00,,---,0.00,VWS V14.00,2013-03-23 19:58:00,
2013-03-23 14:04:00,17.6,15.4,30.09,NNE,33,7.0,13.0,91,0.00,,---,0.00,VWS V14.00,2013-03-23 20:04:00,
2013-03-23 14:09:00,17.7,15.5,30.09,NE,39,9.0,11.0,91,0.00,,---,0.00,VWS V14.00,2013-03-23 20:09:00,
2013-03-23 14:14:00,17.7,15.5,30.09,NNE,23,9.0,12.0,91,0.00,,---,0.00,VWS V14.00,2013-03-23 20:14:00,
2013-03-23 14:19:00,17.8,15.6,30.09,NNE,24,7.0,10.0,91,0.00,,---,0.00,VWS V14.00,2013-03-23 20:19:00,
2013-03-23 14:25:00,18.0,15.8,30.09,NE,37,8.0,10.0,91,0.00,,---,0.00,VWS V14.00,2013-03-23 20:25:00,
2013-03-23 14:30:00,17.9,15.7,30.09,NE,48,5.0,9.0,91,0.00,,---,0.00,VWS V14.00,2013-03-23 20:30:00,
2013-03-23 14:35:00,18.0,15.8,30.09,NE,53,6.0,9.0,91,0.00,,---,0.00,VWS V14.00,2013-03-23 20:35:00,
2013-03-23 14:40:00,18.1,15.9,30.10,NE,38,7.0,9.0,91,0.00,,---,0.00,VWS V14.00,2013-03-23 20:40:00,
2013-03-23 14:45:00,18.1,15.9,30.10,NE,38,3.0,9.0,91,0.00,,---,0.00,VWS V14.00,2013-03-23 20:45:00,
2013-03-23 14:50:00,18.1,15.9,30.10,NE,34,7.0,8.0,91,0.00,,---,0.00,VWS V14.00,2013-03-23 20:50:00,
2013-03-23 14:55:00,18.2,16.0,30.10,NNE,32,4.0,5.0,91,0.00,,---,0.00,VWS V14.00,2013-03-23 20:55:00,
2013-03-23 15:00:00,18.4,16.5,30.10,NE,42,6.0,8.0,92,0.00,,---,0.00,VWS V14.00,2013-03-23 21:00:00,
2013-03-23 15:05:00,18.6,16.4,30.10,NNE,31,3.0,4.0,91,0.00,,---,0.00,VWS V14.00,2013-03-23 21:05:00,
2013-03-23 15:11:00,19.0,17.1,30.10,NNE,21,6.0,7.0,92,0.00,,---,0.00,VWS V14.00,2013-03-23 21:11:00,
2013-03-23 15:16:00,19.1,17.2,30.10,NNE,22,3.0,5.0,92,0.00,,---,0.00,VWS V14.00,2013-03-23 21:16:00,
2013-03-23 15:21:00,19.2,17.3,30.10,NNE,33,5.0,6.0,92,0.00,,---,0.00,VWS V14.00,2013-03-23 21:21:00,
2013-03-23 15:26:00,19.1,17.2,30.11,NE,38,4.0,6.0,92,0.00,,---,0.00,VWS V14.00,2013-03-23 21:26:00,
2013-03-23 15:32:00,19.1,16.9,30.11,NE,40,2.0,6.0,91,0.00,,---,0.00,VWS V14.00,2013-03-23 21:32:00,
2013-03-23 15:37:00,19.3,17.4,30.11,NNE,32,3.0,6.0,92,0.00,,---,0.00,VWS V14.00,2013-03-23 21:37:00,
2013-03-23 15:42:00,19.4,17.5,30.11,NE,44,7.0,8.0,92,0.00,,---,0.00,VWS V14.00,2013-03-23 21:42:00,
2013-03-23 15:47:00,19.3,17.4,30.11,NNE,32,8.0,10.0,92,0.00,,---,0.00,VWS V14.00,2013-03-23 21:47:00,
2013-03-23 15:52:00,19.3,17.4,30.11,NE,38,5.0,10.0,92,0.00,,---,0.00,VWS V14.00,2013-03-23 21:52:00,
2013-03-23 15:58:00,19.3,17.1,30.11,NNE,22,7.0,9.0,91,0.01,,---,0.01,VWS V14.00,2013-03-23 21:58:00,
2013-03-23 16:03:00,19.5,17.6,30.11,NE,36,6.0,9.0,92,0.01,,---,0.01,VWS V14.00,2013-03-23 22:03:00,
2013-03-23 16:08:00,19.6,17.7,30.11,NNE,32,6.0,9.0,92,0.01,,---,0.01,VWS V14.00,2013-03-23 22:08:00,
2013-03-23 16:13:00,19.7,17.8,30.11,NNE,14,8.0,9.0,92,0.01,,---,0.01,VWS V14.00,2013-03-23 22:13:00,
2013-03-23 16:18:00,19.7,17.8,30.12,NNE,30,6.0,9.0,92,0.01,,---,0.01,VWS V14.00,2013-03-23 22:18:00,
2013-03-23 16:24:00,19.8,17.9,30.12,NNE,15,8.0,11.0,92,0.01,,---,0.01,VWS V14.00,2013-03-23 22:24:00,
2013-03-23 16:29:00,19.7,17.5,30.12,NNE,19,7.0,12.0,91,0.01,,---,0.01,VWS V14.00,2013-03-23 22:29:00,
2013-03-23 16:34:00,19.6,17.4,30.12,NE,34,7.0,12.0,91,0.01,,---,0.01,VWS V14.00,2013-03-23 22:34:00,
2013-03-23 16:39:00,19.6,17.4,30.12,NNE,30,7.0,11.0,91,0.01,,---,0.01,VWS V14.00,2013-03-23 22:39:00,
2013-03-23 16:44:00,19.6,17.4,30.12,NE,34,7.0,12.0,91,0.01,,---,0.01,VWS V14.00,2013-03-23 22:44:00,
2013-03-23 16:49:00,19.8,17.6,30.12,NNE,15,7.0,9.0,91,0.01,,---,0.01,VWS V14.00,2013-03-23 22:49:00,
2013-03-23 16:54:00,19.8,17.6,30.12,NNE,22,6.0,9.0,91,0.01,,---,0.01,VWS V14.00,2013-03-23 22:54:00,
2013-03-23 16:59:00,19.8,17.6,30.13,NNE,30,5.0,9.0,91,0.00,,---,0.01,VWS V14.00,2013-03-23 22:59:00,
2013-03-23 17:05:00,19.8,17.6,30.13,NNE,16,10.0,11.0,91,0.00,,---,0.01,VWS V14.00,2013-03-23 23:05:00,
2013-03-23 17:10:00,19.6,17.4,30.13,NNE,24,10.0,12.0,91,0.00,,---,0.01,VWS V14.00,2013-03-23 23:10:00,
2013-03-23 17:15:00,19.5,17.3,30.13,NNE,13,11.0,12.0,91,0.00,,---,0.01,VWS V14.00,2013-03-23 23:15:00,
2013-03-23 17:20:00,19.4,17.2,30.14,North,360,9.0,12.0,91,0.00,,---,0.01,VWS V14.00,2013-03-23 23:20:00,
2013-03-23 17:25:00,19.4,17.2,30.14,NE,40,10.0,11.0,91,0.00,,---,0.01,VWS V14.00,2013-03-23 23:25:00,
2013-03-23 17:30:00,19.4,17.2,30.14,NNE,28,10.0,12.0,91,0.00,,---,0.01,VWS V14.00,2013-03-23 23:30:00,
2013-03-23 17:36:00,19.5,17.3,30.14,North,5,8.0,8.0,91,0.00,,---,0.01,VWS V14.00,2013-03-23 23:36:00,
2013-03-23 17:41:00,19.5,17.3,30.14,NNE,13,8.0,11.0,91,0.00,,---,0.01,VWS V14.00,2013-03-23 23:41:00,
2013-03-23 17:46:00,19.4,17.2,30.14,North,11,7.0,8.0,91,0.00,,---,0.01,VWS V14.00,2013-03-23 23:46:00,
2013-03-23 17:51:00,19.4,17.2,30.15,NNE,30,7.0,9.0,91,0.00,,---,0.01,VWS V14.00,2013-03-23 23:51:00,
2013-03-23 17:56:00,19.4,17.2,30.15,NE,38,6.0,6.0,91,0.00,,---,0.01,VWS V14.00,2013-03-23 23:56:00,
2013-03-23 18:02:00,19.5,17.3,30.15,NNE,22,5.0,6.0,91,0.00,,---,0.01,VWS V14.00,2013-03-24 00:02:00,
2013-03-23 18:07:00,19.5,17.3,30.15,NNE,18,6.0,7.0,91,0.00,,---,0.01,VWS V14.00,2013-03-24 00:07:00,
2013-03-23 18:13:00,19.4,17.2,30.15,NNE,33,6.0,7.0,91,0.00,,---,0.01,VWS V14.00,2013-03-24 00:13:00,
2013-03-23 18:18:00,19.3,17.1,30.15,NNE,13,4.0,9.0,91,0.00,,---,0.01,VWS V14.00,2013-03-24 00:18:00,
2013-03-23 18:23:00,19.2,17.0,30.16,NNE,13,4.0,9.0,91,0.00,,---,0.01,VWS V14.00,2013-03-24 00:23:00,
2013-03-23 18:28:00,19.2,17.0,30.16,NNE,13,4.0,7.0,91,0.00,,---,0.01,VWS V14.00,2013-03-24 00:28:00,
2013-03-23 18:33:00,19.0,16.6,30.16,North,11,5.0,7.0,90,0.00,,---,0.01,VWS V14.00,2013-03-24 00:33:00,
2013-03-23 18:38:00,18.9,16.5,30.16,North,11,3.0,5.0,90,0.00,,---,0.01,VWS V14.00,2013-03-24 00:38:00,
2013-03-23 18:44:00,18.8,16.4,30.16,North,11,3.0,5.0,90,0.00,,---,0.01,VWS V14.00,2013-03-24 00:44:00,
2013-03-23 18:49:00,18.6,16.2,30.16,North,11,3.0,5.0,90,0.00,,---,0.01,VWS V14.00,2013-03-24 00:49:00,
2013-03-23 18:54:00,18.4,15.7,30.16,North,11,4.0,6.0,89,0.00,,---,0.01,VWS V14.00,2013-03-24 00:54:00,
2013-03-23 18:59:00,18.3,15.6,30.17,North,355,5.0,7.0,89,0.00,,---,0.01,VWS V14.00,2013-03-24 00:59:00,
2013-03-23 19:05:00,18.0,15.3,30.17,NNW,346,6.0,7.0,89,0.00,,---,0.01,VWS V14.00,2013-03-24 01:05:00,
2013-03-23 19:10:00,17.9,15.2,30.17,NNW,327,4.0,8.0,89,0.00,,---,0.01,VWS V14.00,2013-03-24 01:10:00,
2013-03-23 19:15:00,17.8,15.1,30.17,NNW,332,6.0,8.0,89,0.00,,---,0.01,VWS V14.00,2013-03-24 01:15:00,
2013-03-23 19:20:00,17.7,14.8,30.17,NNW,333,5.0,8.0,88,0.00,,---,0.01,VWS V14.00,2013-03-24 01:20:00,
2013-03-23 19:25:00,17.7,14.8,30.17,NW,323,5.0,6.0,88,0.00,,---,0.01,VWS V14.00,2013-03-24 01:25:00,
2013-03-23 19:30:00,17.7,14.8,30.18,NW,325,6.0,7.0,88,0.00,,---,0.01,VWS V14.00,2013-03-24 01:30:00,
2013-03-23 19:36:00,17.6,14.7,30.18,NW,324,5.0,5.0,88,0.00,,---,0.01,VWS V14.00,2013-03-24 01:36:00,
2013-03-23 19:41:00,17.5,14.6,30.18,NW,323,5.0,6.0,88,0.00,,---,0.01,VWS V14.00,2013-03-24 01:41:00,
2013-03-23 19:46:00,17.3,14.4,30.18,NW,323,5.0,5.0,88,0.00,,---,0.01,VWS V14.00,2013-03-24 01:46:00,
2013-03-23 19:51:00,17.3,14.1,30.18,NW,315,6.0,6.0,87,0.00,,---,0.01,VWS V14.00,2013-03-24 01:51:00,
2013-03-23 19:56:00,17.3,14.1,30.18,NW,315,4.0,5.0,87,0.00,,---,0.01,VWS V14.00,2013-03-24 01:56:00,
2013-03-23 20:01:00,17.1,13.9,30.19,NW,315,5.0,5.0,87,0.00,,---,0.01,VWS V14.00,2013-03-24 02:01:00,
2013-03-23 20:07:00,17.0,13.8,30.19,NW,315,5.0,6.0,87,0.00,,---,0.01,VWS V14.00,2013-03-24 02:07:00,
2013-03-23 20:12:00,16.7,13.5,30.19,NW,315,4.0,6.0,87,0.00,,---,0.01,VWS V14.00,2013-03-24 02:12:00,
2013-03-23 20:17:00,16.6,13.4,30.19,NW,315,4.0,4.0,87,0.00,,---,0.01,VWS V14.00,2013-03-24 02:17:00,
2013-03-23 20:22:00,16.6,13.4,30.19,NW,315,4.0,5.0,87,0.00,,---,0.01,VWS V14.00,2013-03-24 02:22:00,
2013-03-23 20:28:00,16.5,13.3,30.19,NW,315,4.0,5.0,87,0.00,,---,0.01,VWS V14.00,2013-03-24 02:28:00,
2013-03-23 20:33:00,16.7,13.5,30.19,NW,315,4.0,5.0,87,0.00,,---,0.01,VWS V14.00,2013-03-24 02:33:00,
2013-03-23 20:38:00,16.6,13.4,30.20,NW,315,5.0,5.0,87,0.00,,---,0.01,VWS V14.00,2013-03-24 02:38:00,
2013-03-23 20:43:00,16.6,13.4,30.20,NW,315,5.0,6.0,87,0.00,,---,0.01,VWS V14.00,2013-03-24 02:43:00,
2013-03-23 20:48:00,16.4,13.2,30.20,NW,315,5.0,5.0,87,0.00,,---,0.01,VWS V14.00,2013-03-24 02:48:00,
2013-03-23 20:54:00,16.3,13.1,30.20,NW,315,5.0,6.0,87,0.00,,---,0.01,VWS V14.00,2013-03-24 02:54:00,
2013-03-23 20:59:00,16.3,13.1,30.21,NW,315,5.0,6.0,87,0.00,,---,0.01,VWS V14.00,2013-03-24 02:59:00,
2013-03-23 21:04:00,16.2,13.0,30.21,NW,315,6.0,6.0,87,0.00,,---,0.01,VWS V14.00,2013-03-24 03:04:00,
2013-03-23 21:09:00,16.3,13.1,30.21,NW,315,4.0,6.0,87,0.00,,---,0.01,VWS V14.00,2013-03-24 03:09:00,
2013-03-23 21:14:00,16.4,13.2,30.21,NW,315,5.0,6.0,87,0.00,,---,0.01,VWS V14.00,2013-03-24 03:14:00,
2013-03-23 21:20:00,16.4,13.2,30.22,NW,315,5.0,6.0,87,0.00,,---,0.01,VWS V14.00,2013-03-24 03:20:00,
2013-03-23 21:25:00,16.8,13.6,30.22,NW,315,5.0,6.0,87,0.00,,---,0.01,VWS V14.00,2013-03-24 03:25:00,
2013-03-23 21:30:00,17.0,13.8,30.22,NW,313,5.0,6.0,87,0.00,,---,0.01,VWS V14.00,2013-03-24 03:30:00,
2013-03-23 21:35:00,17.1,13.9,30.22,NW,313,6.0,7.0,87,0.00,,---,0.01,VWS V14.00,2013-03-24 03:35:00,
2013-03-23 21:40:00,17.1,13.9,30.23,West,281,5.0,7.0,87,0.00,,---,0.01,VWS V14.00,2013-03-24 03:40:00,
2013-03-23 21:45:00,17.3,14.1,30.23,West,279,6.0,7.0,87,0.00,,---,0.01,VWS V14.00,2013-03-24 03:45:00,
2013-03-23 21:50:00,17.4,13.9,30.23,West,277,6.0,7.0,86,0.00,,---,0.01,VWS V14.00,2013-03-24 03:50:00,
2013-03-23 21:55:00,17.3,13.8,30.23,West,276,7.0,7.0,86,0.00,,---,0.01,VWS V14.00,2013-03-24 03:55:00,
2013-03-23 22:00:00,17.4,14.2,30.23,West,276,6.0,7.0,87,0.00,,---,0.01,VWS V14.00,2013-03-24 04:00:00,
2013-03-23 22:01:00,17.4,14.2,30.23,West,276,6.0,7.0,87,0.00,,---,0.01,VWS V14.00,2013-03-24 04:01:00,
2013-03-23 22:02:00,17.4,14.2,30.23,West,276,6.0,7.0,87,0.00,,---,0.01,VWS V14.00,2013-03-24 04:02:00,
2013-03-23 22:07:00,17.4,14.2,30.23,West,275,7.0,7.0,87,0.00,,---,0.01,VWS V14.00,2013-03-24 04:07:00,
2013-03-23 22:12:00,17.5,14.0,30.23,West,275,6.0,7.0,86,0.00,,---,0.01,VWS V14.00,2013-03-24 04:12:00,
2013-03-23 22:17:00,17.7,14.5,30.23,West,275,5.0,7.0,87,0.00,,---,0.01,VWS V14.00,2013-03-24 04:17:00,
2013-03-23 22:22:00,17.8,14.6,30.23,West,275,6.0,7.0,87,0.00,,---,0.01,VWS V14.00,2013-03-24 04:22:00,
2013-03-23 22:27:00,17.5,14.3,30.23,West,267,6.0,7.0,87,0.00,,---,0.01,VWS V14.00,2013-03-24 04:27:00,
2013-03-23 22:33:00,17.3,13.8,30.23,West,265,8.0,8.0,86,0.00,,---,0.01,VWS V14.00,2013-03-24 04:33:00,
2013-03-23 22:38:00,17.1,13.4,30.23,West,273,6.0,8.0,85,0.00,,---,0.01,VWS V14.00,2013-03-24 04:38:00,
2013-03-23 22:43:00,16.8,13.1,30.23,West,277,6.0,9.0,85,0.00,,---,0.01,VWS V14.00,2013-03-24 04:43:00,
2013-03-23 22:48:00,16.7,13.2,30.22,West,273,7.0,8.0,86,0.00,,---,0.01,VWS V14.00,2013-03-24 04:48:00,
2013-03-23 22:53:00,17.2,13.7,30.22,West,273,7.0,8.0,86,0.00,,---,0.01,VWS V14.00,2013-03-24 04:53:00,
2013-03-23 22:59:00,17.5,14.3,30.23,West,277,5.0,8.0,87,0.00,,---,0.01,VWS V14.00,2013-03-24 04:59:00,
2013-03-23 23:04:00,17.4,14.2,30.22,West,273,3.0,8.0,87,0.00,,---,0.01,VWS V14.00,2013-03-24 05:04:00,
2013-03-23 23:09:00,17.2,13.7,30.22,West,269,6.0,7.0,86,0.00,,---,0.01,VWS V14.00,2013-03-24 05:09:00,
2013-03-23 23:14:00,17.0,13.5,30.22,West,281,4.0,8.0,86,0.00,,---,0.01,VWS V14.00,2013-03-24 05:14:00,
2013-03-23 23:19:00,16.9,13.4,30.22,West,273,6.0,8.0,86,0.00,,---,0.01,VWS V14.00,2013-03-24 05:19:00,
2013-03-23 23:24:00,16.8,13.4,30.22,West,273,6.0,8.0,86,0.00,,---,0.01,VWS V14.00,2013-03-24 05:24:00,
2013-03-23 23:29:00,16.8,13.4,30.22,West,265,5.0,9.0,86,0.00,,---,0.01,VWS V14.00,2013-03-24 05:29:00,
2013-03-23 23:35:00,16.8,13.1,30.21,West,261,5.0,9.0,85,0.00,,---,0.01,VWS V14.00,2013-03-24 05:35:00,
2013-03-23 23:40:00,16.7,12.7,30.21,West,262,7.0,10.0,84,0.00,,---,0.01,VWS V14.00,2013-03-24 05:40:00,
2013-03-23 23:45:00,17.0,13.0,30.21,West,267,7.0,10.0,84,0.00,,---,0.01,VWS V14.00,2013-03-24 05:45:00,
2013-03-23 23:50:00,16.9,12.9,30.21,West,273,6.0,10.0,84,0.00,,---,0.01,VWS V14.00,2013-03-24 05:50:00,
2013-03-23 23:55:00,16.9,12.9,30.21,West,273,7.0,7.0,84,0.00,,---,0.00,VWS V14.00,2013-03-24 05:55:00,